This is the latest recevied weather packets stored in our database for station/object OE5ERN-10. If no packets are shown the sender has not sent any weather packets the latest 1 day(s).
| Time | Temp. | Humidity | Pressure | Rain* | Wind** | Luminosity | Snow |
|---|---|---|---|---|---|---|---|
| 1778054131 | 33.89° C | 32% | 1011.7 hPa | 0 mm | - | - | - |
| 1778053231 | 30° C | 43% | 1011.8 hPa | 0 mm | - | - | - |
| 1778052331 | 22.78° C | 54% | 1011.9 hPa | 0 mm | - | - | - |
| 1778051431 | 21.11° C | 57% | 1011.8 hPa | 0 mm | - | - | - |
| 1778050531 | 22.22° C | 52% | 1011.9 hPa | 0 mm | - | - | - |
| 1778049631 | 27.22° C | 46% | 1012.2 hPa | 0 mm | - | - | - |
| 1778048731 | 30° C | 42% | 1012.4 hPa | 0 mm | - | - | - |
| 1778047831 | 25° C | 56% | 1012.5 hPa | 0 mm | - | - | - |
| 1778046931 | 23.89° C | 58% | 1012.6 hPa | 0 mm | - | - | - |
| 1778046031 | 21.11° C | 68% | 1012.4 hPa | 0 mm | - | - | - |
| 1778045131 | 16.11° C | 83% | 1012.3 hPa | 0 mm | - | - | - |
| 1778044231 | 14.44° C | 85% | 1012.2 hPa | 0 mm | - | - | - |
| 1778043331 | 13.33° C | 85% | 1012.3 hPa | 0 mm | - | - | - |
| 1778042431 | 11.67° C | 85% | 1012.4 hPa | 0 mm | - | - | - |
| 1778041531 | 10.56° C | 85% | 1012.6 hPa | 0 mm | - | - | - |
| 1778040631 | 10.56° C | 85% | 1012.7 hPa | 0 mm | - | - | - |
| 1778039731 | 9.44° C | 85% | 1012.7 hPa | 0 mm | - | - | - |
| 1778038831 | 9.44° C | 85% | 1012.8 hPa | 0 mm | - | - | - |
| 1778037931 | 9.44° C | 85% | 1012.7 hPa | 0 mm | - | - | - |
| 1778037031 | 10° C | 85% | 1012.5 hPa | 0 mm | - | - | - |
| 1778036131 | 10° C | 85% | 1012.6 hPa | 0 mm | - | - | - |
| 1778035231 | 10° C | 85% | 1012.4 hPa | 0 mm | - | - | - |
| 1778034331 | 10.56° C | 85% | 1012.6 hPa | 0 mm | - | - | - |
| 1778031631 | 11.11° C | 85% | 1012.4 hPa | 0 mm | - | - | - |
| 1778030731 | 11.67° C | 85% | 1012.5 hPa | 0 mm | - | - | - |
* Rain latest hour (hover to see other rain measurements)
** Current wind speed in m/s (hover to see current wind gust speed)